Time;durP1;ratioP1;P1;durP2;ratioP2;P2;SDS_P1;SDS_P2;PMS_P1;PMS_P2;Temp;Humidity;BMP_temperature;BMP_pressure;BME280_temperature;BME280_humidity;BME280_pressure;Samples;Min_cycle;Max_cycle;Signal;HPM_P1;HPM_P2
2022/08/15 00:00:54;;;;;;;0.43;0.43;;;25.20;99.90;;;;;;5042148;28;20151;-70
2022/08/15 00:03:32;;;;;;;0.32;0.28;;;25.10;99.90;;;;;;5028781;28;20099;-70
2022/08/15 00:06:01;;;;;;;0.30;0.30;;;25.10;99.90;;;;;;5047023;28;20102;-70
2022/08/15 00:08:30;;;;;;;1.48;1.05;;;25.10;99.90;;;;;;5042774;28;20049;-71
2022/08/15 00:11:03;;;;;;;0.75;0.57;;;25.00;99.90;;;;;;5041941;28;20045;-70
2022/08/15 00:13:30;;;;;;;1.85;1.05;;;25.00;99.90;;;;;;5043440;28;20073;-70
2022/08/15 00:15:57;;;;;;;0.73;0.73;;;25.00;99.90;;;;;;5050798;28;20067;-70
2022/08/15 00:18:26;;;;;;;0.95;0.93;;;24.90;99.90;;;;;;5047989;28;20051;-70
2022/08/15 00:20:53;;;;;;;0.47;0.47;;;25.00;99.90;;;;;;5031401;28;20049;-70
2022/08/15 00:23:22;;;;;;;0.08;0.08;;;24.90;99.90;;;;;;5028031;28;20088;-70
2022/08/15 00:25:50;;;;;;;0.57;0.57;;;25.00;99.90;;;;;;5057416;28;20512;-70
2022/08/15 00:28:16;;;;;;;0.40;0.40;;;25.00;99.90;;;;;;5027368;28;20124;-70
2022/08/15 00:30:43;;;;;;;0.17;0.17;;;25.00;99.90;;;;;;5033491;28;20049;-70
2022/08/15 00:33:09;;;;;;;0.20;0.20;;;25.00;99.90;;;;;;5030184;28;20489;-70
2022/08/15 00:35:36;;;;;;;0.13;0.13;;;25.00;99.90;;;;;;5049492;28;20140;-70
2022/08/15 00:38:06;;;;;;;1.02;0.47;;;24.90;99.90;;;;;;5051812;28;20511;-70
2022/08/15 00:41:39;;;;;;;0.40;0.25;;;24.90;99.90;;;;;;5044301;28;20084;-70
2022/08/15 00:43:18;;;;;;;0.40;0.32;;;25.00;99.90;;;;;;5054519;28;20300;-71
2022/08/15 00:45:44;;;;;;;0.82;0.70;;;24.90;99.90;;;;;;5048416;28;20037;-70
2022/08/15 00:50:54;;;;;;;0.10;0.10;;;24.80;99.90;;;;;;5046991;28;20523;-70
2022/08/15 00:53:20;;;;;;;0.10;0.10;;;24.80;99.90;;;;;;5044348;28;20041;-70
2022/08/15 00:55:46;;;;;;;0.30;0.22;;;24.80;99.90;;;;;;5038766;28;20037;-70
2022/08/15 00:58:12;;;;;;;0.57;0.57;;;24.80;99.90;;;;;;5038107;28;20047;-70
2022/08/15 01:00:44;;;;;;;0.13;0.13;;;24.80;99.90;;;;;;5032482;28;20417;-70
2022/08/15 01:03:20;;;;;;;0.60;0.40;;;24.70;99.90;;;;;;5048039;28;20126;-70
2022/08/15 01:05:49;;;;;;;0.47;0.40;;;24.70;99.90;;;;;;5047992;28;20162;-70
2022/08/15 01:08:17;;;;;;;2.00;1.10;;;24.70;99.90;;;;;;5051152;28;20103;-70
2022/08/15 01:10:44;;;;;;;0.38;0.38;;;24.70;99.90;;;;;;5051458;28;20135;-70
2022/08/15 01:13:10;;;;;;;0.90;0.80;;;24.70;99.90;;;;;;5041602;28;20045;-70
2022/08/15 01:15:37;;;;;;;1.33;0.30;;;24.70;99.90;;;;;;5031848;28;20069;-70
2022/08/15 01:18:03;;;;;;;0.32;0.32;;;24.70;99.90;;;;;;5030831;28;20060;-70
2022/08/15 01:20:32;;;;;;;0.52;0.25;;;24.70;99.90;;;;;;5043774;28;20095;-70
2022/08/15 01:23:35;;;;;;;3.63;2.15;;;24.70;99.90;;;;;;5044092;28;20475;-70
2022/08/15 01:26:04;;;;;;;1.58;1.48;;;24.60;99.90;;;;;;5033758;28;20746;-70
2022/08/15 01:28:39;;;;;;;0.00;0.00;;;24.60;99.90;;;;;;5031369;28;20045;-70
2022/08/15 01:31:11;;;;;;;0.15;0.15;;;24.60;99.90;;;;;;5029666;28;20049;-70
2022/08/15 01:33:42;;;;;;;0.53;0.47;;;24.70;99.90;;;;;;5032638;28;20405;-70
2022/08/15 01:36:09;;;;;;;0.25;0.25;;;24.60;99.90;;;;;;5049631;28;20103;-70
2022/08/15 01:38:39;;;;;;;1.65;0.85;;;24.60;99.90;;;;;;5032294;28;20129;-70
2022/08/15 01:41:37;;;;;;;0.30;0.30;;;24.50;99.90;;;;;;5030597;28;20484;-70
2022/08/15 01:44:20;;;;;;;3.65;0.40;;;24.50;99.90;;;;;;5027980;28;20060;-70
2022/08/15 01:47:17;;;;;;;0.20;0.20;;;24.50;99.90;;;;;;5030283;28;20120;-71
2022/08/15 01:49:53;;;;;;;2.22;1.90;;;24.50;99.90;;;;;;5051845;28;20048;-71
2022/08/15 01:52:23;;;;;;;1.58;1.05;;;24.50;99.90;;;;;;5048738;28;20102;-70
2022/08/15 01:54:50;;;;;;;0.10;0.10;;;24.50;99.90;;;;;;5036533;28;20053;-70
2022/08/15 01:57:16;;;;;;;0.80;0.45;;;24.30;99.90;;;;;;5045760;28;20084;-70
2022/08/15 01:59:42;;;;;;;0.20;0.20;;;24.30;99.90;;;;;;5029226;28;20446;-70
2022/08/15 02:02:11;;;;;;;0.28;0.22;;;24.30;99.90;;;;;;5036270;28;20404;-70
2022/08/15 02:04:40;;;;;;;0.88;0.45;;;24.30;99.90;;;;;;5046293;28;20049;-70
2022/08/15 02:07:09;;;;;;;6.10;1.23;;;24.30;99.90;;;;;;5029444;28;20156;-70
2022/08/15 02:09:35;;;;;;;0.20;0.15;;;24.30;99.90;;;;;;5037602;28;20045;-70
2022/08/15 02:12:03;;;;;;;0.10;0.10;;;24.30;99.90;;;;;;5028762;28;20496;-70
2022/08/15 02:14:31;;;;;;;0.40;0.40;;;24.20;99.90;;;;;;5031477;28;20090;-70
2022/08/15 02:16:56;;;;;;;0.73;0.57;;;24.20;99.90;;;;;;5037239;28;20041;-70
2022/08/15 02:19:22;;;;;;;0.47;0.25;;;24.20;99.90;;;;;;5040130;28;20488;-70
2022/08/15 02:21:48;;;;;;;7.78;1.20;;;24.20;99.90;;;;;;5046805;28;20130;-70
2022/08/15 02:24:23;;;;;;;0.50;0.45;;;24.20;99.90;;;;;;5034462;28;20048;-70
2022/08/15 02:26:52;;;;;;;0.30;0.30;;;24.20;99.90;;;;;;5035926;28;20049;-70
2022/08/15 02:29:23;;;;;;;1.10;0.70;;;24.10;99.90;;;;;;5042507;28;20056;-70
2022/08/15 02:31:51;;;;;;;1.05;0.30;;;24.10;99.90;;;;;;5030737;28;20046;-70
2022/08/15 02:34:17;;;;;;;14.80;0.77;;;24.10;99.90;;;;;;5029055;28;20057;-70
2022/08/15 02:36:43;;;;;;;1.17;0.65;;;24.10;99.90;;;;;;5035427;28;20037;-70
2022/08/15 02:39:10;;;;;;;1.13;0.98;;;24.00;99.90;;;;;;5044586;28;20490;-70
2022/08/15 02:41:40;;;;;;;0.35;0.35;;;24.00;99.90;;;;;;5029291;28;20085;-68
2022/08/15 02:44:06;;;;;;;0.20;0.20;;;24.00;99.90;;;;;;5042027;28;20079;-68
2022/08/15 02:46:32;;;;;;;0.40;0.40;;;24.00;99.90;;;;;;5044187;28;20105;-69
2022/08/15 02:49:01;;;;;;;0.13;0.13;;;24.00;99.90;;;;;;5032344;28;20159;-69
2022/08/15 02:51:28;;;;;;;0.80;0.55;;;24.00;99.90;;;;;;5046827;28;20454;-69
2022/08/15 02:53:55;;;;;;;0.95;0.35;;;24.00;99.90;;;;;;5040519;28;20033;-70
2022/08/15 02:56:26;;;;;;;1.80;1.08;;;24.00;99.90;;;;;;5036718;28;20052;-69
2022/08/15 02:58:52;;;;;;;0.82;0.73;;;24.00;99.90;;;;;;5050029;28;20037;-69
2022/08/15 03:01:20;;;;;;;1.27;0.57;;;24.00;99.90;;;;;;5045072;28;20076;-70
2022/08/15 03:03:49;;;;;;;0.20;0.20;;;24.00;99.90;;;;;;5039995;28;20103;-69
2022/08/15 03:06:18;;;;;;;0.50;0.30;;;24.00;99.90;;;;;;5028169;28;20088;-70
2022/08/15 03:08:45;;;;;;;0.10;0.10;;;23.90;99.90;;;;;;5028879;28;20041;-69
2022/08/15 03:11:11;;;;;;;0.55;0.55;;;23.90;99.90;;;;;;5032985;28;20041;-70
2022/08/15 03:13:38;;;;;;;0.50;0.50;;;23.90;99.90;;;;;;5049373;28;20134;-70
2022/08/15 03:16:05;;;;;;;0.00;0.00;;;23.90;99.90;;;;;;5046189;28;20048;-70
2022/08/15 03:18:33;;;;;;;0.15;0.10;;;23.90;99.90;;;;;;5032233;28;20041;-69
2022/08/15 03:21:01;;;;;;;0.52;0.50;;;23.80;99.90;;;;;;5064414;28;20064;-69
2022/08/15 03:23:32;;;;;;;1.65;0.30;;;23.80;99.90;;;;;;5048128;28;20037;-69
2022/08/15 03:25:59;;;;;;;0.38;0.38;;;23.80;99.90;;;;;;5031070;28;20081;-69
2022/08/15 03:28:31;;;;;;;0.10;0.05;;;23.60;99.90;;;;;;5028906;28;20366;-69
2022/08/15 03:30:59;;;;;;;0.52;0.30;;;23.60;99.90;;;;;;5028669;28;20134;-69
2022/08/15 03:33:25;;;;;;;0.28;0.28;;;23.70;99.90;;;;;;5038302;28;20538;-70
2022/08/15 03:35:51;;;;;;;0.32;0.32;;;23.60;99.90;;;;;;5029032;28;20408;-69
2022/08/15 03:38:18;;;;;;;2.45;0.95;;;23.60;99.90;;;;;;5044251;28;20488;-69
2022/08/15 03:40:45;;;;;;;2.28;0.85;;;23.60;99.90;;;;;;5047683;28;20128;-70
2022/08/15 03:43:18;;;;;;;0.50;0.50;;;23.60;99.90;;;;;;5047227;28;20052;-69
2022/08/15 03:45:47;;;;;;;0.40;0.30;;;23.60;99.90;;;;;;5028424;28;20049;-69
2022/08/15 03:48:12;;;;;;;0.30;0.28;;;23.60;99.90;;;;;;5039028;28;20037;-70
2022/08/15 03:50:38;;;;;;;0.93;0.57;;;23.60;99.90;;;;;;5027048;28;20111;-70
2022/08/15 03:53:06;;;;;;;0.40;0.40;;;23.60;99.90;;;;;;5026600;28;20374;-69
2022/08/15 03:55:34;;;;;;;0.47;0.47;;;23.50;99.90;;;;;;5028276;28;20053;-69
2022/08/15 03:58:00;;;;;;;0.52;0.52;;;23.40;99.90;;;;;;5039533;28;20551;-69
2022/08/15 04:00:31;;;;;;;1.00;0.70;;;23.40;99.90;;;;;;5036425;28;20071;-69
2022/08/15 04:03:10;;;;;;;1.33;1.10;;;23.40;99.90;;;;;;5028281;28;20597;-69
2022/08/15 04:05:36;;;;;;;0.35;0.35;;;23.40;99.90;;;;;;5037847;28;20738;-69
2022/08/15 04:08:05;;;;;;;2.00;0.55;;;23.40;99.90;;;;;;5041393;28;20056;-69
2022/08/15 04:10:32;;;;;;;1.38;1.27;;;23.40;99.90;;;;;;5033478;28;20076;-69
2022/08/15 04:12:58;;;;;;;1.33;1.23;;;23.40;99.90;;;;;;5047691;28;20122;-69
2022/08/15 04:15:24;;;;;;;0.60;0.60;;;23.30;99.90;;;;;;5047347;28;20057;-69
2022/08/15 04:17:52;;;;;;;0.47;0.47;;;23.30;99.90;;;;;;5032550;28;20044;-69
2022/08/15 04:20:18;;;;;;;1.17;1.10;;;23.30;99.90;;;;;;5028856;28;20068;-68
2022/08/15 04:22:47;;;;;;;2.88;2.38;;;23.30;99.90;;;;;;5041329;28;20493;-69
2022/08/15 04:25:21;;;;;;;1.50;0.65;;;23.30;99.90;;;;;;5033351;28;20045;-69
2022/08/15 04:27:49;;;;;;;1.08;1.08;;;23.30;99.90;;;;;;5063264;28;20504;-69
2022/08/15 04:30:16;;;;;;;0.82;0.45;;;23.30;99.90;;;;;;5047899;28;20048;-69
2022/08/15 04:32:42;;;;;;;0.35;0.35;;;23.30;99.90;;;;;;5047503;28;20057;-69
2022/08/15 04:35:11;;;;;;;1.30;1.20;;;23.30;99.90;;;;;;5027022;28;20515;-69
2022/08/15 04:37:39;;;;;;;0.70;0.70;;;23.30;99.90;;;;;;5030188;28;20048;-69
2022/08/15 04:40:06;;;;;;;0.52;0.47;;;23.30;99.90;;;;;;5045825;28;20052;-69
2022/08/15 04:42:32;;;;;;;0.73;0.15;;;23.30;99.90;;;;;;5039712;28;20120;-69
2022/08/15 04:44:58;;;;;;;0.30;0.20;;;23.30;99.90;;;;;;5033833;28;20135;-69
2022/08/15 04:47:23;;;;;;;0.40;0.40;;;23.30;99.90;;;;;;5046767;28;20403;-69
2022/08/15 04:49:49;;;;;;;0.45;0.28;;;23.30;99.90;;;;;;5039168;28;20057;-69
2022/08/15 04:52:19;;;;;;;1.02;0.17;;;23.30;99.90;;;;;;5028445;28;20041;-69
2022/08/15 04:54:45;;;;;;;0.85;0.80;;;23.30;99.90;;;;;;5031096;28;20053;-69
2022/08/15 04:57:12;;;;;;;0.25;0.25;;;23.30;99.90;;;;;;5043861;28;20095;-69
2022/08/15 04:59:39;;;;;;;1.08;0.52;;;23.30;99.90;;;;;;5028892;28;20080;-69
2022/08/15 05:02:08;;;;;;;0.40;0.40;;;23.30;99.90;;;;;;5045719;28;20059;-69
2022/08/15 05:04:34;;;;;;;0.22;0.22;;;23.30;99.90;;;;;;5037228;28;20046;-69
2022/08/15 05:07:00;;;;;;;1.65;1.10;;;23.30;99.90;;;;;;5027520;28;20084;-69
2022/08/15 05:09:25;;;;;;;0.15;0.15;;;23.30;99.90;;;;;;5026592;28;20124;-69
2022/08/15 05:11:51;;;;;;;0.47;0.38;;;23.30;99.90;;;;;;5027974;28;20401;-69
2022/08/15 05:14:18;;;;;;;0.15;0.15;;;23.20;99.90;;;;;;5026639;28;20069;-69
2022/08/15 05:16:43;;;;;;;0.10;0.10;;;23.20;99.90;;;;;;5045022;28;20041;-69
2022/08/15 05:19:09;;;;;;;0.28;0.20;;;23.20;99.90;;;;;;5044873;28;20087;-69
2022/08/15 05:21:35;;;;;;;0.35;0.35;;;23.30;99.90;;;;;;5029629;28;20107;-69
2022/08/15 05:24:00;;;;;;;0.50;0.50;;;23.30;99.90;;;;;;5030350;28;20545;-69
2022/08/15 05:26:26;;;;;;;0.82;0.25;;;23.20;99.90;;;;;;5030976;28;20140;-68
2022/08/15 05:28:52;;;;;;;0.30;0.30;;;23.30;99.90;;;;;;5030887;28;20528;-69
2022/08/15 05:31:17;;;;;;;0.30;0.30;;;23.30;99.90;;;;;;5033508;28;20060;-69
2022/08/15 05:33:46;;;;;;;0.13;0.13;;;23.30;99.90;;;;;;5029643;28;20053;-69
2022/08/15 05:36:13;;;;;;;0.25;0.25;;;23.30;99.90;;;;;;5034412;28;20056;-69
2022/08/15 05:38:43;;;;;;;0.50;0.50;;;23.30;99.90;;;;;;5050083;28;20635;-69
2022/08/15 05:41:32;;;;;;;0.95;0.40;;;23.30;99.90;;;;;;5034424;28;20052;-69
2022/08/15 05:44:02;;;;;;;0.10;0.10;;;23.30;99.90;;;;;;5045283;28;20063;-69
2022/08/15 05:46:46;;;;;;;0.85;0.85;;;23.40;99.90;;;;;;5034636;28;20119;-69
2022/08/15 05:49:47;;;;;;;0.75;0.60;;;23.40;99.90;;;;;;5030885;28;20049;-69
2022/08/15 05:52:40;;;;;;;0.47;0.47;;;23.40;99.90;;;;;;5046554;28;20045;-69
2022/08/15 05:55:37;;;;;;;0.65;0.65;;;23.40;99.90;;;;;;5029333;28;20049;-69
2022/08/15 05:58:18;;;;;;;0.95;0.63;;;23.50;99.90;;;;;;5029132;28;20045;-69
2022/08/15 06:00:50;;;;;;;0.45;0.45;;;23.50;99.90;;;;;;5030805;28;20077;-69
2022/08/15 06:03:23;;;;;;;1.15;1.05;;;23.50;99.90;;;;;;5029077;28;20057;-69
2022/08/15 06:05:53;;;;;;;0.30;0.30;;;23.50;99.90;;;;;;5029677;28;20050;-69
2022/08/15 06:08:24;;;;;;;4.28;0.40;;;23.50;99.90;;;;;;5030195;28;20136;-69
2022/08/15 06:11:03;;;;;;;1.17;0.73;;;23.50;99.90;;;;;;5037236;28;20072;-69
2022/08/15 06:13:43;;;;;;;0.30;0.30;;;23.50;99.90;;;;;;5048724;28;20048;-69
2022/08/15 06:16:17;;;;;;;0.80;0.77;;;23.60;99.90;;;;;;5043905;28;20152;-69
2022/08/15 06:18:45;;;;;;;0.45;0.45;;;23.60;99.90;;;;;;5041538;28;20049;-69
2022/08/15 06:21:28;;;;;;;0.10;0.10;;;23.60;99.90;;;;;;5046998;28;20049;-69
2022/08/15 06:24:12;;;;;;;0.20;0.20;;;23.60;99.90;;;;;;5048229;28;20041;-68
2022/08/15 06:26:53;;;;;;;0.10;0.10;;;23.60;99.90;;;;;;5037425;28;20053;-69
2022/08/15 06:29:27;;;;;;;0.30;0.30;;;23.70;99.90;;;;;;5028225;28;20071;-69
2022/08/15 06:32:09;;;;;;;0.90;0.80;;;23.70;99.90;;;;;;5033668;28;20044;-69
2022/08/15 06:35:04;;;;;;;0.40;0.40;;;23.80;99.90;;;;;;5049251;28;20053;-69
2022/08/15 06:38:14;;;;;;;1.83;1.40;;;23.90;99.90;;;;;;5040126;28;20048;-69
2022/08/15 06:40:39;;;;;;;0.55;0.55;;;23.90;99.90;;;;;;5043035;28;20053;-69
2022/08/15 06:43:07;;;;;;;0.10;0.10;;;24.00;99.90;;;;;;5047939;28;20048;-69
2022/08/15 06:45:43;;;;;;;0.52;0.38;;;24.10;99.90;;;;;;5046159;28;20079;-69
2022/08/15 06:48:13;;;;;;;1.45;1.30;;;24.10;99.90;;;;;;5036741;28;20771;-69
2022/08/15 06:50:47;;;;;;;0.05;0.05;;;24.20;99.90;;;;;;5029365;28;20159;-70
2022/08/15 06:53:20;;;;;;;1.05;0.50;;;24.10;99.90;;;;;;5042681;28;20045;-70
2022/08/15 06:56:08;;;;;;;0.17;0.17;;;24.20;99.90;;;;;;5049083;28;20073;-69
2022/08/15 06:58:39;;;;;;;1.13;0.98;;;24.20;99.90;;;;;;5049244;28;20045;-69
2022/08/15 07:01:33;;;;;;;0.15;0.15;;;24.30;99.90;;;;;;5029599;28;20045;-69
2022/08/15 07:04:17;;;;;;;0.68;0.57;;;24.30;99.90;;;;;;5029590;28;20061;-70
2022/08/15 07:06:54;;;;;;;0.20;0.20;;;24.40;99.90;;;;;;5047309;28;20053;-69
2022/08/15 07:09:43;;;;;;;0.05;0.05;;;24.50;99.90;;;;;;5036870;28;20046;-69
2022/08/15 07:12:22;;;;;;;0.85;0.52;;;24.50;99.90;;;;;;5007282;28;20064;-69
2022/08/15 07:14:57;;;;;;;1.15;0.95;;;24.50;99.90;;;;;;5029191;28;20061;-69
2022/08/15 07:17:29;;;;;;;0.20;0.20;;;24.60;99.90;;;;;;5039083;28;20413;-69
2022/08/15 07:19:54;;;;;;;1.67;1.42;;;24.70;99.90;;;;;;5028974;28;20060;-69
2022/08/15 07:22:20;;;;;;;0.25;0.25;;;24.70;99.90;;;;;;5043061;28;20042;-69
2022/08/15 07:24:52;;;;;;;0.65;0.65;;;24.70;99.90;;;;;;5029147;28;20057;-69
2022/08/15 07:27:29;;;;;;;0.43;0.30;;;24.80;99.90;;;;;;5029050;28;20111;-69
2022/08/15 07:30:02;;;;;;;0.80;0.40;;;24.80;99.90;;;;;;5028786;28;20056;-70
2022/08/15 07:32:42;;;;;;;0.08;0.08;;;24.90;99.90;;;;;;5029405;28;20044;-70
2022/08/15 07:35:13;;;;;;;0.13;0.13;;;25.00;99.90;;;;;;5042440;28;20059;-70
2022/08/15 07:37:48;;;;;;;0.00;0.00;;;25.00;99.90;;;;;;5048266;28;20057;-69
2022/08/15 07:40:22;;;;;;;0.03;0.03;;;25.00;99.90;;;;;;5044814;28;20037;-70
2022/08/15 07:42:48;;;;;;;0.30;0.30;;;25.10;99.90;;;;;;5035660;28;20069;-70
2022/08/15 07:45:32;;;;;;;0.90;0.25;;;25.10;99.90;;;;;;5027257;28;20045;-70
2022/08/15 07:48:21;;;;;;;1.20;0.28;;;25.10;99.90;;;;;;5032822;28;20048;-70
2022/08/15 07:51:22;;;;;;;0.40;0.40;;;25.10;99.90;;;;;;5036494;28;20038;-70
2022/08/15 07:54:04;;;;;;;0.05;0.05;;;25.20;99.90;;;;;;5017420;28;20424;-70
2022/08/15 07:56:32;;;;;;;0.00;0.00;;;25.20;99.90;;;;;;5027564;28;20135;-70
2022/08/15 07:59:20;;;;;;;0.15;0.15;;;25.30;99.90;;;;;;5027597;28;20527;-69
2022/08/15 08:01:47;;;;;;;0.10;0.10;;;25.20;99.90;;;;;;5046434;28;20519;-70
2022/08/15 08:04:19;;;;;;;0.10;0.10;;;25.20;99.90;;;;;;5027423;28;20551;-70
2022/08/15 08:06:55;;;;;;;0.20;0.20;;;25.30;99.90;;;;;;5049435;28;20114;-70
2022/08/15 08:09:29;;;;;;;0.20;0.20;;;25.30;99.90;;;;;;5044183;28;20073;-70
2022/08/15 08:12:09;;;;;;;0.30;0.30;;;25.30;99.90;;;;;;5029418;28;20112;-70
2022/08/15 08:14:47;;;;;;;0.10;0.10;;;25.40;99.90;;;;;;5031387;28;20076;-70
2022/08/15 08:17:16;;;;;;;0.00;0.00;;;25.40;99.90;;;;;;5037097;28;20499;-70
2022/08/15 08:20:15;;;;;;;0.20;0.20;;;25.50;99.90;;;;;;5027189;28;20054;-70
2022/08/15 08:22:44;;;;;;;1.75;0.30;;;25.50;99.90;;;;;;5028116;28;20700;-70
2022/08/15 08:25:19;;;;;;;0.17;0.10;;;25.50;99.90;;;;;;5027234;28;20130;-70
2022/08/15 08:27:56;;;;;;;0.00;0.00;;;25.60;99.90;;;;;;5027897;28;20045;-70
2022/08/15 08:30:25;;;;;;;0.00;0.00;;;25.60;99.90;;;;;;5027132;28;20118;-70
2022/08/15 08:33:01;;;;;;;0.10;0.10;;;25.70;99.90;;;;;;5027929;28;20178;-70
2022/08/15 08:35:49;;;;;;;0.13;0.08;;;25.80;99.90;;;;;;5028006;28;20049;-70
2022/08/15 08:38:32;;;;;;;0.00;0.00;;;25.80;99.90;;;;;;5034729;28;20045;-70
2022/08/15 08:41:34;;;;;;;0.10;0.10;;;25.90;99.90;;;;;;5044555;28;20128;-70
2022/08/15 08:44:25;;;;;;;0.10;0.10;;;26.10;99.90;;;;;;5027864;28;20042;-70
2022/08/15 08:46:57;;;;;;;0.00;0.00;;;26.10;99.90;;;;;;5026713;28;20041;-70
2022/08/15 08:49:42;;;;;;;0.00;0.00;;;26.20;99.90;;;;;;5029994;28;20041;-70
2022/08/15 08:52:49;;;;;;;0.10;0.10;;;26.30;99.90;;;;;;5026514;28;20057;-71
2022/08/15 08:55:18;;;;;;;0.00;0.00;;;26.40;99.90;;;;;;5030691;28;20072;-71
2022/08/15 08:57:50;;;;;;;0.10;0.10;;;26.50;99.90;;;;;;5031900;28;20083;-70
2022/08/15 09:00:19;;;;;;;0.00;0.00;;;26.60;99.90;;;;;;5031460;28;20080;-71
2022/08/15 09:02:52;;;;;;;0.10;0.10;;;26.70;99.90;;;;;;5032965;28;20096;-71
2022/08/15 09:05:26;;;;;;;0.00;0.00;;;26.70;99.90;;;;;;5031478;28;20053;-71
2022/08/15 09:07:57;;;;;;;0.00;0.00;;;26.80;99.90;;;;;;5040130;28;20041;-71
2022/08/15 09:10:31;;;;;;;0.10;0.10;;;26.80;99.90;;;;;;5032321;28;20487;-70
2022/08/15 09:15:42;;;;;;;0.10;0.10;;;27.00;99.90;;;;;;5031748;28;20591;-70
2022/08/15 09:18:14;;;;;;;0.03;0.03;;;27.10;99.90;;;;;;5032865;28;20047;-70
2022/08/15 09:20:41;;;;;;;0.45;0.25;;;27.10;99.90;;;;;;5031110;28;20118;-70
2022/08/15 09:23:10;;;;;;;0.15;0.15;;;27.40;99.90;;;;;;5030443;28;20104;-70
2022/08/15 09:26:06;;;;;;;0.00;0.00;;;27.50;99.90;;;;;;5031157;28;20080;-71
2022/08/15 09:28:38;;;;;;;0.40;0.40;;;27.50;99.90;;;;;;5030172;28;20068;-70
2022/08/15 09:31:14;;;;;;;0.30;0.20;;;27.60;99.90;;;;;;5029664;28;20045;-71
2022/08/15 09:33:51;;;;;;;0.45;0.45;;;27.80;99.90;;;;;;5031362;28;20447;-73
2022/08/15 09:36:38;;;;;;;0.00;0.00;;;27.90;99.90;;;;;;5033713;28;20056;-71
2022/08/15 09:39:41;;;;;;;0.17;0.17;;;28.20;99.90;;;;;;5049880;28;20045;-71
2022/08/15 09:42:29;;;;;;;0.10;0.10;;;28.50;99.90;;;;;;5050937;28;20045;-70
2022/08/15 09:45:32;;;;;;;0.10;0.10;;;28.70;99.90;;;;;;5035840;28;20054;-71
2022/08/15 09:48:20;;;;;;;0.00;0.00;;;28.80;99.90;;;;;;5029546;28;20136;-70
2022/08/15 09:51:04;;;;;;;0.10;0.10;;;28.70;99.90;;;;;;5044201;28;20048;-70
2022/08/15 09:54:01;;;;;;;0.10;0.10;;;28.70;99.90;;;;;;5042255;28;20037;-70
2022/08/15 09:56:30;;;;;;;0.22;0.10;;;29.00;99.90;;;;;;5048562;28;20615;-70
2022/08/15 09:59:02;;;;;;;0.10;0.10;;;29.20;99.90;;;;;;5030760;28;20053;-70
2022/08/15 10:01:30;;;;;;;0.30;0.30;;;29.30;99.90;;;;;;5064391;28;20140;-71
2022/08/15 10:04:00;;;;;;;0.28;0.28;;;29.30;99.90;;;;;;5042951;28;20053;-71
2022/08/15 10:06:32;;;;;;;0.17;0.13;;;29.50;99.90;;;;;;5028855;28;20041;-70
2022/08/15 10:09:16;;;;;;;1.05;0.15;;;29.70;99.90;;;;;;5053266;28;20036;-73
2022/08/15 10:11:41;;;;;;;0.70;0.40;;;29.70;99.90;;;;;;5040839;28;20096;-70
2022/08/15 10:14:19;;;;;;;0.00;0.00;;;29.80;99.90;;;;;;5043139;28;20080;-70
2022/08/15 10:16:49;;;;;;;0.00;0.00;;;30.00;99.90;;;;;;5035489;28;20175;-70
2022/08/15 10:19:35;;;;;;;0.10;0.10;;;30.00;99.90;;;;;;5029665;28;20041;-71
2022/08/15 10:22:22;;;;;;;0.03;0.03;;;30.20;99.90;;;;;;5029311;28;20041;-70
2022/08/15 10:25:18;;;;;;;0.30;0.30;;;30.20;99.90;;;;;;5038289;28;20072;-70
2022/08/15 10:28:08;;;;;;;0.55;0.32;;;30.40;99.90;;;;;;5036759;28;20591;-70
2022/08/15 10:30:45;;;;;;;0.10;0.10;;;30.50;99.90;;;;;;5047452;28;20137;-71
2022/08/15 10:33:34;;;;;;;0.90;0.35;;;30.50;99.90;;;;;;5048353;28;20126;-70
2022/08/15 10:36:21;;;;;;;0.10;0.10;;;30.50;99.90;;;;;;5040831;28;20493;-71
2022/08/15 10:39:02;;;;;;;0.22;0.20;;;30.70;99.90;;;;;;5039796;28;20045;-71
2022/08/15 10:42:08;;;;;;;0.00;0.00;;;30.70;99.90;;;;;;5037059;28;20084;-71
2022/08/15 10:45:08;;;;;;;0.13;0.05;;;31.00;99.90;;;;;;5033950;28;20049;-71
2022/08/15 10:47:51;;;;;;;0.47;0.47;;;30.90;99.90;;;;;;5038069;28;20041;-70
2022/08/15 10:50:34;;;;;;;0.08;0.08;;;30.80;99.80;;;;;;5029346;28;20580;-70
2022/08/15 10:53:18;;;;;;;0.05;0.03;;;30.70;99.90;;;;;;5048791;28;20060;-71
2022/08/15 10:55:44;;;;;;;4.80;0.10;;;30.10;99.90;;;;;;5056475;28;20049;-71
2022/08/15 10:58:13;;;;;;;2.55;0.43;;;29.70;99.90;;;;;;5034656;28;20500;-71
2022/08/15 11:01:03;;;;;;;0.00;0.00;;;29.70;99.90;;;;;;5036477;28;20099;-71
2022/08/15 11:03:39;;;;;;;0.17;0.17;;;29.60;99.90;;;;;;5036365;28;20068;-71
2022/08/15 11:06:07;;;;;;;0.10;0.10;;;29.50;99.90;;;;;;5029165;28;20464;-72
2022/08/15 11:08:42;;;;;;;0.00;0.00;;;29.40;99.90;;;;;;5033198;28;20098;-71
2022/08/15 11:11:10;;;;;;;0.30;0.30;;;29.60;99.90;;;;;;5046824;28;20049;-71
2022/08/15 11:13:37;;;;;;;0.20;0.20;;;29.50;99.90;;;;;;5047386;28;20108;-71
2022/08/15 11:16:13;;;;;;;0.20;0.20;;;29.40;99.90;;;;;;5037091;28;20044;-71
2022/08/15 11:18:53;;;;;;;0.68;0.25;;;29.20;99.50;;;;;;5035098;28;20037;-71
2022/08/15 11:21:28;;;;;;;0.20;0.10;;;29.10;99.10;;;;;;5033177;28;20037;-71
2022/08/15 11:23:57;;;;;;;0.57;0.30;;;29.10;99.30;;;;;;5028713;28;20033;-70
2022/08/15 11:26:29;;;;;;;0.00;0.00;;;28.90;99.10;;;;;;5043777;28;20386;-71
2022/08/15 11:29:15;;;;;;;0.22;0.22;;;28.80;99.60;;;;;;5043485;28;20041;-71
2022/08/15 11:31:57;;;;;;;0.95;0.28;;;28.70;99.90;;;;;;5040232;28;20057;-71
2022/08/15 11:34:38;;;;;;;0.15;0.15;;;28.70;99.70;;;;;;5038920;28;20056;-71
2022/08/15 11:37:15;;;;;;;1.75;1.55;;;28.50;99.40;;;;;;5033657;28;20094;-71
2022/08/15 11:39:44;;;;;;;0.25;0.15;;;28.20;99.00;;;;;;5047983;28;20084;-71
2022/08/15 11:42:18;;;;;;;0.22;0.20;;;28.10;99.00;;;;;;5049958;28;20132;-71
2022/08/15 11:44:54;;;;;;;0.00;0.00;;;28.00;99.60;;;;;;5061258;28;20067;-71
2022/08/15 11:47:20;;;;;;;0.05;0.05;;;27.90;99.00;;;;;;5040827;28;20413;-71
2022/08/15 11:49:55;;;;;;;0.03;0.03;;;27.90;99.40;;;;;;5027289;28;20037;-71
2022/08/15 11:52:31;;;;;;;0.00;0.00;;;27.90;99.90;;;;;;5027878;28;20437;-71
2022/08/15 11:55:18;;;;;;;0.20;0.20;;;28.00;98.80;;;;;;5043726;28;20045;-71
2022/08/15 11:57:51;;;;;;;0.10;0.10;;;28.20;99.30;;;;;;5027247;28;20049;-71
2022/08/15 12:00:28;;;;;;;0.00;0.00;;;28.50;98.60;;;;;;5030967;28;20452;-71
2022/08/15 12:02:54;;;;;;;0.00;0.00;;;28.60;98.40;;;;;;5044044;28;20053;-70
2022/08/15 12:05:31;;;;;;;0.20;0.13;;;28.50;97.20;;;;;;5041432;28;20057;-71
2022/08/15 12:07:59;;;;;;;0.00;0.00;;;28.50;97.70;;;;;;5059429;28;20060;-71
2022/08/15 12:10:32;;;;;;;0.05;0.05;;;28.50;97.60;;;;;;5048377;28;20041;-70
2022/08/15 12:12:58;;;;;;;0.98;0.20;;;28.60;97.80;;;;;;5047376;28;20076;-71
2022/08/15 12:15:33;;;;;;;0.55;0.17;;;28.50;97.10;;;;;;5036134;28;20485;-71
2022/08/15 12:18:18;;;;;;;0.05;0.05;;;28.40;97.20;;;;;;5036578;28;20480;-71
2022/08/15 12:20:47;;;;;;;0.15;0.15;;;28.40;97.20;;;;;;5037083;28;20110;-71
2022/08/15 12:23:20;;;;;;;4.18;1.67;;;28.20;97.10;;;;;;5030532;28;20124;-71
2022/08/15 12:25:54;;;;;;;0.10;0.03;;;28.10;96.90;;;;;;5031213;28;20054;-71
2022/08/15 12:28:20;;;;;;;0.00;0.00;;;28.00;97.10;;;;;;5046918;28;20495;-71
2022/08/15 12:30:47;;;;;;;0.10;0.10;;;28.00;97.00;;;;;;5049799;28;20136;-71
2022/08/15 12:33:13;;;;;;;0.35;0.20;;;27.90;97.40;;;;;;5034204;28;20037;-71
2022/08/15 12:35:39;;;;;;;0.00;0.00;;;27.80;97.10;;;;;;5047205;28;20045;-71
2022/08/15 12:38:05;;;;;;;0.10;0.10;;;27.80;97.50;;;;;;5047377;28;20057;-71
2022/08/15 12:40:31;;;;;;;0.00;0.00;;;27.80;97.00;;;;;;5038864;28;20485;-71
2022/08/15 12:42:56;;;;;;;0.00;0.00;;;27.70;97.20;;;;;;5053087;28;20060;-71
2022/08/15 12:45:22;;;;;;;0.85;0.80;;;27.70;97.20;;;;;;5039224;28;20041;-70
2022/08/15 12:47:48;;;;;;;0.00;0.00;;;27.70;96.40;;;;;;5034442;28;20053;-70
2022/08/15 12:50:14;;;;;;;0.65;0.20;;;27.50;96.00;;;;;;5035741;28;20053;-72
2022/08/15 12:52:41;;;;;;;0.10;0.10;;;27.50;96.20;;;;;;5043340;28;20516;-70
2022/08/15 12:55:09;;;;;;;0.00;0.00;;;27.40;96.30;;;;;;5037882;28;20489;-70
2022/08/15 12:57:35;;;;;;;0.13;0.13;;;27.40;96.70;;;;;;5048267;28;20550;-69
2022/08/15 13:00:01;;;;;;;0.00;0.00;;;27.20;96.40;;;;;;5050390;28;20053;-69
2022/08/15 13:02:26;;;;;;;0.00;0.00;;;27.20;96.40;;;;;;5044588;28;20045;-70
2022/08/15 13:04:55;;;;;;;0.00;0.00;;;27.30;96.60;;;;;;5039923;28;20114;-70
2022/08/15 13:07:23;;;;;;;0.63;0.52;;;27.30;97.00;;;;;;5044316;28;20044;-70
2022/08/15 13:09:49;;;;;;;0.00;0.00;;;27.40;96.90;;;;;;5052786;28;20584;-70
2022/08/15 13:12:15;;;;;;;0.20;0.10;;;27.80;97.60;;;;;;5055994;28;20091;-69
2022/08/15 13:14:42;;;;;;;0.10;0.10;;;28.20;97.90;;;;;;5053136;28;20120;-69
2022/08/15 13:17:09;;;;;;;0.00;0.00;;;28.40;97.00;;;;;;5054394;28;20037;-68
2022/08/15 13:25:09;;;;;;;0.00;0.00;;;29.00;97.60;;;;;;5034189;28;20038;-69
2022/08/15 13:27:35;;;;;;;0.08;0.03;;;29.30;97.90;;;;;;5034175;28;20576;-69
2022/08/15 13:30:05;;;;;;;0.00;0.00;;;29.30;97.60;;;;;;5045400;28;20052;-69